Aviation Digital Data Service (ADDS)

Output produced by METARs form (1440 UTC 24 July 2014)
found at http://www.aviationweather.gov/adds/metars/
 
KDFW 241120Z 2412/2518 11005KT P6SM BKN050 BKN200 
     FM241800 08005KT P6SM SCT060 
     FM250100 15005KT P6SM SKC